Time;durP1;ratioP1;P1;durP2;ratioP2;P2;SDS_P1;SDS_P2;PMS_P1;PMS_P2;Temp;Humidity;BMP_temperature;BMP_pressure;BME280_temperature;BME280_humidity;BME280_pressure;Samples;Min_cycle;Max_cycle;Signal;HPM_P1;HPM_P2
2021/12/02 00:02:57;;;;;;;5.43;1.73;;;;;;;18.98;53.41;95128.38;10457375;28;20124;-22
2021/12/02 00:07:57;;;;;;;2.80;0.77;;;;;;;18.96;53.41;95128.44;10456737;28;20286;-22
2021/12/02 00:13:01;;;;;;;1.57;0.80;;;;;;;18.97;53.48;95124.19;10461245;28;20056;-23
2021/12/02 00:23:25;;;;;;;3.58;0.63;;;;;;;19.00;53.51;95126.66;10463106;28;20043;-22
2021/12/02 00:28:28;;;;;;;3.63;0.77;;;;;;;18.98;53.55;95119.09;10469020;28;20489;-23
2021/12/02 00:33:30;;;;;;;2.80;0.77;;;;;;;18.97;53.65;95117.41;10462723;28;20033;-22
2021/12/02 00:38:31;;;;;;;2.47;0.63;;;;;;;18.98;53.61;95116.53;10462734;28;20037;-23
2021/12/02 00:43:33;;;;;;;4.18;1.55;;;;;;;18.90;53.71;95103.25;10462311;28;20515;-22
2021/12/02 00:48:35;;;;;;;2.67;1.45;;;;;;;18.97;53.74;95124.19;10473961;28;20032;-22
2021/12/02 00:53:42;;;;;;;1.42;0.68;;;;;;;18.92;54.00;95116.69;10466139;28;20524;-22
2021/12/02 00:58:50;;;;;;;2.17;0.80;;;;;;;18.95;53.87;95128.47;10466966;28;20119;-22
2021/12/02 01:03:56;;;;;;;2.22;0.63;;;;;;;18.98;53.83;95131.75;10464890;28;20040;-22
2021/12/02 01:08:57;;;;;;;3.10;0.80;;;;;;;18.96;53.72;95130.13;10462198;28;20045;-23
2021/12/02 01:13:57;;;;;;;3.00;0.63;;;;;;;18.93;53.63;95132.75;10461290;28;20045;-22
2021/12/02 01:18:58;;;;;;;2.37;0.70;;;;;;;18.96;53.72;95142.81;10463573;28;20033;-23
2021/12/02 01:24:00;;;;;;;2.88;0.70;;;;;;;18.96;53.53;95146.19;10462115;28;20033;-22
2021/12/02 01:29:04;;;;;;;3.35;0.70;;;;;;;18.96;53.72;95141.13;10450112;28;20104;-22
2021/12/02 01:34:08;;;;;;;2.88;1.15;;;;;;;18.85;53.49;95120.28;10457388;28;20090;-22
2021/12/02 01:39:09;;;;;;;0.85;0.47;;;;;;;18.94;53.67;95134.41;10456943;28;20459;-22
2021/12/02 01:44:12;;;;;;;0.68;0.43;;;;;;;18.90;53.48;95127.75;10462089;28;20067;-22
2021/12/02 01:49:14;;;;;;;1.52;0.77;;;;;;;18.89;53.70;95137.09;10472158;28;20029;-22
2021/12/02 01:54:20;;;;;;;1.15;0.50;;;;;;;18.97;53.49;95145.31;10462541;28;20041;-22
2021/12/02 01:59:33;;;;;;;2.55;0.70;;;;;;;18.90;53.44;95117.59;10463460;28;20044;-22
2021/12/02 02:04:34;;;;;;;1.35;0.57;;;;;;;18.88;53.39;95120.22;10460814;28;20435;-22
2021/12/02 02:09:34;;;;;;;3.35;0.73;;;;;;;18.96;53.54;95127.59;10458679;28;20043;-22
2021/12/02 02:14:36;;;;;;;1.58;0.40;;;;;;;18.87;53.61;95113.47;10459566;28;20095;-22
2021/12/02 02:19:36;;;;;;;1.65;0.55;;;;;;;18.93;53.59;95120.09;10460398;28;20051;-22
2021/12/02 02:24:37;;;;;;;2.42;0.98;;;;;;;18.95;53.51;95121.72;10461546;28;20440;-22
2021/12/02 02:29:37;;;;;;;1.23;0.65;;;;;;;18.95;53.50;95131.00;10460334;28;20037;-22
2021/12/02 02:34:38;;;;;;;1.00;0.30;;;;;;;18.96;53.57;95128.44;10460250;28;20037;-22
2021/12/02 02:39:38;;;;;;;0.77;0.57;;;;;;;18.90;53.71;95115.06;10457393;28;20039;-22
2021/12/02 02:44:39;;;;;;;2.47;0.40;;;;;;;18.95;53.65;95124.25;10460355;28;20043;-23
2021/12/02 02:49:39;;;;;;;0.80;0.30;;;;;;;18.96;53.39;95117.44;10467396;28;20063;-22
2021/12/02 02:54:39;;;;;;;3.90;0.60;;;;;;;18.95;53.18;95131.84;10459013;28;20285;-22
2021/12/02 03:00:04;;;;;;;1.65;0.57;;;;;;;18.97;53.56;95129.25;10461273;28;20484;-22
2021/12/02 03:05:33;;;;;;;1.63;0.40;;;;;;;18.95;53.45;95131.00;10464164;28;20037;-23
2021/12/02 03:20:50;;;;;;;0.77;0.50;;;;;;;18.94;53.34;95124.28;10456718;28;20043;-22
2021/12/02 03:25:51;;;;;;;1.50;0.85;;;;;;;18.88;53.40;95116.81;10458130;28;20036;-23
2021/12/02 03:30:51;;;;;;;0.88;0.50;;;;;;;18.92;53.05;95124.31;10455403;28;20033;-22
2021/12/02 03:35:51;;;;;;;1.70;0.50;;;;;;;18.87;53.53;95110.09;10456309;28;20554;-22
2021/12/02 03:40:52;;;;;;;1.03;0.40;;;;;;;18.95;53.32;95120.88;10456846;28;20489;-22
2021/12/02 03:45:52;;;;;;;2.17;0.53;;;;;;;18.98;53.23;95123.31;10468282;28;20040;-22
2021/12/02 03:50:52;;;;;;;1.10;0.73;;;;;;;18.95;53.34;95121.72;10476273;28;20481;-23
2021/12/02 03:55:53;;;;;;;0.90;0.43;;;;;;;18.90;53.36;95107.47;10466187;28;20503;-22
2021/12/02 04:00:54;;;;;;;0.95;0.57;;;;;;;18.93;53.10;95112.47;10470887;28;20295;-22
2021/12/02 04:05:55;;;;;;;2.67;0.70;;;;;;;18.96;53.49;95112.38;10467522;28;20041;-22
2021/12/02 04:11:09;;;;;;;2.15;1.40;;;;;;;18.94;53.33;95104.00;10464524;28;20652;-22
2021/12/02 04:16:15;;;;;;;1.95;0.40;;;;;;;18.95;53.31;95110.72;10466351;28;20089;-23
2021/12/02 04:21:16;;;;;;;2.53;1.00;;;;;;;18.88;53.37;95094.00;10463637;28;20510;-22
2021/12/02 04:26:16;;;;;;;3.83;1.87;;;;;;;18.93;53.41;95104.88;10465061;28;20124;-22
2021/12/02 04:31:17;;;;;;;0.85;0.30;;;;;;;18.96;53.25;95099.69;10465071;28;20290;-22
2021/12/02 04:36:17;;;;;;;1.98;0.70;;;;;;;18.96;53.13;95094.63;10461740;28;20037;-22
2021/12/02 04:41:18;;;;;;;1.27;0.52;;;;;;;18.96;53.16;95100.53;10472439;28;20032;-22
2021/12/02 04:46:19;;;;;;;1.92;0.68;;;;;;;18.97;53.34;95098.81;10455379;28;20071;-22
2021/12/02 04:51:19;;;;;;;3.05;0.60;;;;;;;18.97;53.30;95094.59;10457133;28;20494;-22
2021/12/02 04:56:19;;;;;;;1.02;0.32;;;;;;;18.99;53.04;95086.97;10459037;28;20408;-22
2021/12/02 05:01:20;;;;;;;0.63;0.30;;;;;;;18.98;53.07;95087.81;10466510;28;20032;-22
2021/12/02 05:06:20;;;;;;;1.67;0.80;;;;;;;18.92;53.13;95080.38;10460705;28;20294;-22
2021/12/02 05:11:21;;;;;;;2.63;0.40;;;;;;;18.98;53.04;95085.28;10460682;28;20082;-23
2021/12/02 05:16:21;;;;;;;1.87;0.40;;;;;;;19.02;53.04;95097.00;10460046;28;20499;-22
2021/12/02 05:21:24;;;;;;;8.10;0.77;;;;;;;18.96;53.02;95087.03;10452077;28;20029;-22
2021/12/02 05:26:26;;;;;;;2.47;0.50;;;;;;;19.03;52.74;95091.91;10467200;28;20037;-24
2021/12/02 05:31:27;;;;;;;2.65;0.43;;;;;;;19.09;53.01;95098.50;10474087;28;20029;-22
2021/12/02 05:36:27;;;;;;;1.38;0.40;;;;;;;19.06;52.88;95103.63;10452064;28;20029;-22
2021/12/02 05:41:28;;;;;;;2.37;0.80;;;;;;;19.10;52.77;95110.31;10454675;28;20061;-22
2021/12/02 05:46:29;;;;;;;3.80;0.68;;;;;;;19.10;53.15;95100.16;10455639;28;20279;-22
2021/12/02 05:51:30;;;;;;;4.53;0.60;;;;;;;19.11;53.05;95101.81;10455080;28;20082;-22
2021/12/02 05:56:30;;;;;;;2.42;0.80;;;;;;;19.09;52.05;95099.31;10460623;28;20122;-20
2021/12/02 06:01:30;;;;;;;1.77;0.73;;;;;;;19.00;50.49;95084.34;10457880;28;20028;-21
2021/12/02 06:06:31;;;;;;;8.57;0.87;;;;;;;19.04;50.11;95085.09;10458589;28;20037;-21
2021/12/02 06:11:31;;;;;;;3.80;1.15;;;;;;;19.13;50.22;95082.31;10462974;28;20027;-21
2021/12/02 06:16:32;;;;;;;7.60;1.30;;;;;;;19.00;50.67;95083.53;10459271;28;20115;-21
2021/12/02 06:21:32;;;;;;;5.30;1.67;;;;;;;19.11;50.79;95086.59;10459227;28;20043;-21
2021/12/02 06:26:33;;;;;;;4.03;1.10;;;;;;;19.10;51.46;95090.81;10457317;28;20024;-21
2021/12/02 06:31:33;;;;;;;5.22;1.30;;;;;;;19.15;51.77;95088.16;10459725;28;20476;-21
2021/12/02 06:36:36;;;;;;;12.40;1.53;;;;;;;19.06;51.61;95078.28;10456763;28;20036;-21
2021/12/02 06:41:36;;;;;;;9.15;1.63;;;;;;;19.10;51.91;95084.94;10456873;28;20520;-21
2021/12/02 06:46:37;;;;;;;12.43;2.30;;;;;;;19.05;52.38;95081.69;10458444;28;20060;-21
2021/12/02 06:51:37;;;;;;;8.48;1.90;;;;;;;19.10;52.37;95084.94;10467440;28;20292;-21
2021/12/02 06:56:38;;;;;;;4.70;1.73;;;;;;;19.08;52.86;95079.91;10455991;28;20628;-20
2021/12/02 07:01:38;;;;;;;8.30;1.73;;;;;;;19.06;53.08;95078.28;10462673;28;20366;-20
2021/12/02 07:06:39;;;;;;;5.10;1.73;;;;;;;19.04;52.67;95069.88;10462705;28;20045;-21
2021/12/02 07:11:41;;;;;;;11.75;2.47;;;;;;;19.10;53.00;95082.41;10455994;28;20287;-20
2021/12/02 07:16:41;;;;;;;7.13;2.40;;;;;;;19.07;53.49;95090.09;10459236;28;20051;-21
2021/12/02 07:21:42;;;;;;;4.10;1.95;;;;;;;19.09;53.18;95088.34;10456273;28;20657;-21
2021/12/02 07:26:46;;;;;;;10.90;1.75;;;;;;;19.12;53.35;95100.94;10458701;28;20115;-21
2021/12/02 07:31:47;;;;;;;9.88;1.80;;;;;;;18.66;51.72;95098.00;10462433;28;20037;-20
2021/12/02 07:36:49;;;;;;;14.23;2.70;;;;;;;18.96;52.64;95097.16;10455367;28;20412;-21
2021/12/02 07:41:50;;;;;;;8.50;1.58;;;;;;;18.94;52.71;95093.84;10456073;28;20465;-21
2021/12/02 07:46:51;;;;;;;8.15;1.63;;;;;;;18.93;52.73;95093.00;10455801;28;20036;-21
2021/12/02 07:51:52;;;;;;;11.98;1.70;;;;;;;18.94;53.31;95107.38;10464621;28;20037;-21
2021/12/02 07:56:53;;;;;;;6.97;1.80;;;;;;;19.03;53.05;95109.66;10454691;28;20067;-21
2021/12/02 08:02:00;;;;;;;6.03;2.28;;;;;;;19.05;53.10;95112.13;10460450;28;20055;-21
2021/12/02 08:07:00;;;;;;;11.40;2.78;;;;;;;18.94;53.34;95098.91;10456915;28;20033;-21
2021/12/02 08:12:02;;;;;;;8.20;2.57;;;;;;;19.05;53.27;95117.19;10453572;28;20481;-21
2021/12/02 08:17:04;;;;;;;9.40;2.35;;;;;;;19.02;53.46;95122.38;10456778;28;20033;-21
2021/12/02 08:22:04;;;;;;;4.78;2.30;;;;;;;19.03;53.59;95129.94;10455045;28;20029;-20
2021/12/02 08:27:06;;;;;;;15.02;2.78;;;;;;;19.00;53.94;95134.25;10460306;28;20529;-21
2021/12/02 08:32:06;;;;;;;11.55;3.00;;;;;;;19.02;53.65;95132.50;10461357;28;20041;-21
2021/12/02 08:37:08;;;;;;;6.35;2.33;;;;;;;19.03;53.34;95136.72;10460719;28;20075;-22
2021/12/02 08:42:09;;;;;;;32.95;4.78;;;;;;;19.02;53.96;95127.44;10462368;28;20083;-20
2021/12/02 08:47:12;;;;;;;7.25;2.90;;;;;;;19.02;53.60;95127.44;10463732;28;20445;-21
2021/12/02 08:52:12;;;;;;;8.10;3.00;;;;;;;19.05;53.77;95138.34;10472617;28;20033;-21
2021/12/02 08:57:12;;;;;;;17.60;2.90;;;;;;;19.04;53.66;95141.75;10460435;28;20496;-21
2021/12/02 09:02:13;;;;;;;7.00;3.20;;;;;;;19.12;53.38;95139.00;10465149;28;20366;-21
2021/12/02 09:07:14;;;;;;;7.57;2.87;;;;;;;19.04;53.56;95130.75;10462690;28;20051;-21
2021/12/02 09:12:15;;;;;;;10.15;2.90;;;;;;;19.08;53.68;95134.88;10462006;28;20032;-21
2021/12/02 09:17:15;;;;;;;4.85;2.20;;;;;;;19.06;53.48;95144.22;10459438;28;20401;-21
2021/12/02 09:22:16;;;;;;;12.30;3.37;;;;;;;19.04;53.47;95136.69;10462143;28;20477;-22
2021/12/02 09:27:17;;;;;;;8.10;2.28;;;;;;;19.10;53.45;95145.81;10460961;28;20301;-21
2021/12/02 09:32:17;;;;;;;5.27;2.70;;;;;;;19.12;53.41;95149.13;10463109;28;20029;-21
2021/12/02 09:37:18;;;;;;;5.05;2.90;;;;;;;19.07;53.77;95146.72;10459560;28;20290;-21
2021/12/02 09:42:20;;;;;;;6.47;2.70;;;;;;;19.15;53.43;95151.56;10462627;28;20036;-21
2021/12/02 09:47:21;;;;;;;13.07;3.03;;;;;;;19.15;53.00;95151.56;10464068;28;20493;-21
2021/12/02 09:52:29;;;;;;;8.38;2.97;;;;;;;19.16;53.05;95143.13;10459873;28;20031;-21
2021/12/02 09:57:35;;;;;;;10.95;3.20;;;;;;;19.19;53.46;95148.94;10461473;28;20127;-20
2021/12/02 10:02:42;;;;;;;5.53;3.30;;;;;;;19.17;53.41;95152.38;10463185;28;20480;-21
2021/12/02 10:08:00;;;;;;;9.55;3.30;;;;;;;19.13;53.28;95140.66;10460998;28;20045;-21
2021/12/02 10:18:25;;;;;;;8.95;3.20;;;;;;;19.05;52.97;95137.50;10457440;28;20112;-21
2021/12/02 10:23:29;;;;;;;9.48;3.72;;;;;;;19.05;52.93;95125.66;10458938;28;20441;-20
2021/12/02 10:28:35;;;;;;;15.10;4.75;;;;;;;19.21;52.68;95128.63;10459498;28;20052;-21
2021/12/02 10:33:46;;;;;;;5.82;3.38;;;;;;;19.19;52.33;95125.31;10459928;28;20116;-20
2021/12/02 10:38:46;;;;;;;5.95;3.92;;;;;;;19.20;52.67;95121.88;10456756;28;20636;-20
2021/12/02 10:44:06;;;;;;;5.13;3.47;;;;;;;19.20;52.70;95124.41;10455072;28;20040;-21
2021/12/02 10:49:15;;;;;;;6.13;3.53;;;;;;;19.23;52.73;95107.41;10464394;28;20036;-21
2021/12/02 10:54:26;;;;;;;7.95;3.47;;;;;;;19.24;52.71;95108.25;10459872;28;20037;-21
2021/12/02 10:59:42;;;;;;;10.65;4.53;;;;;;;19.23;52.68;95111.63;10458393;28;20540;-21
2021/12/02 11:05:25;;;;;;;8.85;3.90;;;;;;;19.20;52.79;95111.75;10454647;28;20053;-21
2021/12/02 11:10:38;;;;;;;7.28;4.90;;;;;;;19.20;52.76;95112.59;10458334;28;20397;-21
2021/12/02 11:15:39;;;;;;;6.03;3.53;;;;;;;19.17;52.85;95112.63;10458198;28;20040;-20
2021/12/02 11:20:43;;;;;;;7.63;3.38;;;;;;;18.90;50.38;95110.00;10459873;28;20033;-22
2021/12/02 11:25:49;;;;;;;15.93;4.97;;;;;;;19.23;52.97;95122.63;10458086;28;20766;-21
2021/12/02 11:30:50;;;;;;;8.10;3.78;;;;;;;19.23;52.79;95129.41;10458767;28;20032;-20
2021/12/02 11:35:51;;;;;;;13.25;4.50;;;;;;;19.23;52.88;95126.88;10455036;28;20125;-21
2021/12/02 11:40:54;;;;;;;8.00;4.60;;;;;;;19.19;53.29;95135.44;10458180;28;20116;-21
2021/12/02 11:45:56;;;;;;;7.45;3.95;;;;;;;19.26;53.37;95136.94;10461155;28;20039;-21
2021/12/02 11:51:00;;;;;;;11.23;3.70;;;;;;;19.29;53.42;95136.84;10455892;28;20039;-21
2021/12/02 11:56:08;;;;;;;10.35;4.38;;;;;;;19.33;53.47;95130.81;10456925;28;20117;-21
2021/12/02 12:01:15;;;;;;;9.70;3.65;;;;;;;19.44;53.10;95141.50;10460617;28;20519;-20
2021/12/02 12:06:28;;;;;;;6.60;3.95;;;;;;;19.50;53.15;95181.94;10460879;28;20028;-20
2021/12/02 12:11:31;;;;;;;9.55;4.25;;;;;;;19.54;52.96;95188.56;10464566;28;20504;-21
2021/12/02 12:16:47;;;;;;;7.47;3.33;;;;;;;19.57;52.64;95204.56;10463999;28;20178;-20
2021/12/02 12:22:00;;;;;;;5.95;3.83;;;;;;;19.46;51.34;95200.66;10463488;28;20052;-21
2021/12/02 12:27:16;;;;;;;6.97;3.47;;;;;;;19.15;50.15;95208.22;10464327;28;20040;-20
2021/12/02 12:32:26;;;;;;;6.88;3.90;;;;;;;19.34;51.23;95226.38;10465908;28;20033;-21
2021/12/02 12:37:29;;;;;;;6.45;3.58;;;;;;;19.36;51.92;95234.78;10462079;28;20416;-20
2021/12/02 12:42:29;;;;;;;7.95;4.63;;;;;;;19.31;52.12;95221.34;10462266;28;20033;-20
2021/12/02 12:47:49;;;;;;;12.55;5.43;;;;;;;19.30;52.65;95229.84;10465994;28;20040;-23
2021/12/02 12:52:54;;;;;;;8.98;4.40;;;;;;;19.29;52.85;95223.13;10472359;28;20087;-20
2021/12/02 12:58:25;;;;;;;10.00;4.45;;;;;;;19.30;52.89;95224.78;10459874;28;20152;-22
2021/12/02 13:03:33;;;;;;;8.52;4.68;;;;;;;19.30;52.98;95224.78;10460046;28;20041;-21
2021/12/02 13:08:43;;;;;;;7.90;3.78;;;;;;;19.33;53.05;95222.19;10463299;28;20123;-21
2021/12/02 13:13:46;;;;;;;7.82;4.13;;;;;;;19.30;52.92;95209.56;10467293;28;20544;-21
2021/12/02 13:18:47;;;;;;;7.10;3.95;;;;;;;19.24;53.12;95199.59;10460686;28;20029;-21
2021/12/02 13:24:10;;;;;;;10.25;3.75;;;;;;;19.23;53.51;95202.97;10468150;28;20111;-20
2021/12/02 13:29:13;;;;;;;6.05;4.45;;;;;;;19.25;53.41;95207.13;10471715;28;20041;-21
2021/12/02 13:34:15;;;;;;;5.57;4.25;;;;;;;19.21;53.58;95214.88;10455781;28;20480;-20
2021/12/02 13:39:26;;;;;;;6.60;4.57;;;;;;;19.18;53.68;95210.69;10461810;28;20033;-21
2021/12/02 13:44:44;;;;;;;6.22;4.65;;;;;;;19.22;53.49;95211.47;10470344;28;20115;-20
2021/12/02 13:49:51;;;;;;;8.93;6.10;;;;;;;19.11;54.35;95214.28;10461366;28;20123;-21
2021/12/02 13:55:00;;;;;;;13.77;7.38;;;;;;;19.16;54.39;95226.84;10461022;28;20091;-21
2021/12/02 14:00:15;;;;;;;12.50;6.70;;;;;;;19.09;52.44;95220.25;10460798;28;20051;-21
2021/12/02 14:05:19;;;;;;;15.52;9.43;;;;;;;19.06;53.82;95225.38;10459832;28;20036;-21
2021/12/02 14:10:23;;;;;;;15.25;9.75;;;;;;;19.05;54.03;95249.94;10457762;28;20032;-21
2021/12/02 14:15:35;;;;;;;16.55;10.27;;;;;;;19.07;54.22;95252.41;10462249;28;20408;-21
2021/12/02 14:20:52;;;;;;;7.07;4.22;;;;;;;17.87;46.06;95251.00;10463032;28;20028;-20
2021/12/02 14:25:59;;;;;;;15.40;8.13;;;;;;;18.64;52.98;95257.72;10453893;28;20028;-23
2021/12/02 14:31:08;;;;;;;13.98;9.80;;;;;;;18.86;53.05;95285.94;10464560;28;20057;-21
2021/12/02 14:36:14;;;;;;;11.30;7.80;;;;;;;18.96;53.07;95282.28;10467454;28;20036;-21
2021/12/02 14:41:18;;;;;;;13.43;8.40;;;;;;;19.05;53.06;95285.44;10465488;28;20743;-21
2021/12/02 14:46:25;;;;;;;13.35;9.13;;;;;;;19.03;53.51;95293.97;10472524;28;20029;-20
2021/12/02 14:51:26;;;;;;;17.35;9.73;;;;;;;19.03;53.73;95297.34;10464865;28;20032;-21
2021/12/02 14:56:33;;;;;;;14.93;8.38;;;;;;;19.05;53.67;95304.88;10452110;28;20501;-21
2021/12/02 15:01:34;;;;;;;16.45;8.98;;;;;;;19.10;53.59;95324.19;10462564;28;20040;-21
2021/12/02 15:06:38;;;;;;;11.13;8.07;;;;;;;19.10;53.30;95334.34;10468480;28;20063;-20
2021/12/02 15:11:38;;;;;;;15.05;8.77;;;;;;;19.07;53.81;95339.50;10449044;28;20531;-21
2021/12/02 15:16:52;;;;;;;11.63;7.87;;;;;;;19.12;53.73;95352.06;10460622;28;20037;-21
2021/12/02 15:21:52;;;;;;;10.27;7.80;;;;;;;19.14;53.48;95356.25;10458872;28;20042;-20
2021/12/02 15:27:09;;;;;;;17.63;8.23;;;;;;;19.10;53.66;95353.81;10456194;28;20032;-20
2021/12/02 15:32:10;;;;;;;14.63;8.85;;;;;;;19.10;53.58;95359.69;10451304;28;20036;-20
2021/12/02 15:37:11;;;;;;;11.95;7.10;;;;;;;19.15;53.47;95373.13;10452477;28;20049;-20
2021/12/02 15:42:12;;;;;;;11.82;7.82;;;;;;;19.16;53.18;95376.50;10464771;28;20048;-20
2021/12/02 15:47:15;;;;;;;9.57;6.82;;;;;;;19.15;53.32;95385.81;10468906;28;20044;-20
2021/12/02 15:52:15;;;;;;;10.90;8.18;;;;;;;19.11;53.38;95396.91;10465806;28;20025;-20
2021/12/02 15:57:16;;;;;;;12.10;7.67;;;;;;;19.10;53.46;95399.47;10466633;28;20036;-21
2021/12/02 16:07:29;;;;;;;10.57;7.47;;;;;;;19.04;53.21;95409.75;10474732;28;20275;-21
2021/12/02 16:12:31;;;;;;;9.88;7.78;;;;;;;19.08;53.32;95419.78;10457188;28;20458;-21
2021/12/02 16:17:35;;;;;;;9.75;7.75;;;;;;;19.05;53.10;95416.50;10463157;28;21696;-21
2021/12/02 16:22:36;;;;;;;13.73;8.05;;;;;;;19.11;53.37;95440.03;10459358;28;20051;-20
2021/12/02 16:27:37;;;;;;;7.90;6.18;;;;;;;19.12;53.43;95454.38;10460905;28;20067;-19
2021/12/02 16:32:39;;;;;;;11.25;7.13;;;;;;;19.13;52.63;95462.81;10464989;28;20044;-21
2021/12/02 16:37:40;;;;;;;12.55;7.18;;;;;;;19.16;53.50;95480.53;10456933;28;20041;-20
2021/12/02 16:42:46;;;;;;;14.95;7.20;;;;;;;19.13;54.14;95491.56;10469005;28;20037;-21
2021/12/02 16:47:47;;;;;;;8.37;6.50;;;;;;;19.00;51.42;95499.47;10466133;28;20040;-20
2021/12/02 16:52:50;;;;;;;6.97;5.32;;;;;;;18.93;51.32;95497.94;10472818;28;20033;-21
2021/12/02 16:57:51;;;;;;;8.43;5.57;;;;;;;18.98;50.93;95521.47;10467490;28;20475;-21
2021/12/02 17:02:52;;;;;;;13.48;5.88;;;;;;;19.03;50.65;95535.75;10467432;28;20032;-21
2021/12/02 17:07:52;;;;;;;10.43;6.72;;;;;;;19.08;51.09;95553.41;10472304;28;20033;-22
2021/12/02 17:13:07;;;;;;;10.43;5.40;;;;;;;19.03;51.24;95557.75;10466199;28;20040;-21
2021/12/02 17:18:09;;;;;;;8.48;5.43;;;;;;;18.91;52.01;95566.44;10463155;28;20112;-21
2021/12/02 17:23:11;;;;;;;13.07;6.40;;;;;;;19.07;53.66;95588.09;10477112;28;20041;-21
2021/12/02 17:28:12;;;;;;;10.30;6.47;;;;;;;19.04;53.30;95595.78;10465159;28;20032;-21
2021/12/02 17:33:12;;;;;;;9.55;6.60;;;;;;;19.05;53.60;95605.03;10474644;28;20070;-21
2021/12/02 17:38:13;;;;;;;11.75;5.80;;;;;;;19.02;53.68;95624.56;10469970;28;20037;-21
2021/12/02 17:43:20;;;;;;;11.43;6.00;;;;;;;19.01;53.65;95638.94;10470476;28;20036;-21
2021/12/02 17:48:21;;;;;;;7.95;5.43;;;;;;;18.97;53.57;95637.34;10467607;28;20075;-21
2021/12/02 17:53:22;;;;;;;10.63;6.07;;;;;;;19.03;53.50;95661.75;10463789;28;20035;-22
2021/12/02 17:58:22;;;;;;;9.82;6.05;;;;;;;19.01;53.83;95668.56;10458467;28;20472;-22
2021/12/02 18:03:23;;;;;;;10.13;6.57;;;;;;;18.96;54.36;95666.09;10458264;28;20504;-22
2021/12/02 18:08:23;;;;;;;8.35;5.95;;;;;;;18.97;55.29;95674.53;10459630;28;20496;-23
2021/12/02 18:13:24;;;;;;;10.53;6.10;;;;;;;19.11;54.61;95696.25;10466103;28;20455;-22
2021/12/02 18:18:27;;;;;;;12.30;6.88;;;;;;;19.10;55.08;95714.03;10467506;28;20028;-22
2021/12/02 18:23:28;;;;;;;15.93;6.85;;;;;;;18.95;55.43;95694.03;10474426;28;20511;-22
2021/12/02 18:28:28;;;;;;;11.65;7.03;;;;;;;19.10;55.29;95726.72;10467054;28;20039;-22
2021/12/02 18:33:29;;;;;;;9.20;6.40;;;;;;;19.13;54.89;95739.34;10468976;28;20040;-22
2021/12/02 18:38:29;;;;;;;9.15;5.97;;;;;;;19.18;54.21;95743.47;10463826;28;20295;-21
2021/12/02 18:43:33;;;;;;;10.93;6.10;;;;;;;19.08;54.16;95741.97;10466783;28;20041;-23
2021/12/02 18:48:34;;;;;;;8.50;5.53;;;;;;;19.07;54.76;95757.19;10455782;28;20029;-22
2021/12/02 18:53:35;;;;;;;13.23;7.05;;;;;;;19.05;54.83;95766.53;10462945;28;20485;-22
2021/12/02 18:58:35;;;;;;;9.90;5.57;;;;;;;19.03;54.81;95769.13;10459450;28;20033;-22
2021/12/02 19:03:37;;;;;;;11.10;5.50;;;;;;;19.12;54.59;95781.66;10457798;28;20055;-22
2021/12/02 19:29:54;;;;;;;8.90;5.45;;;;;;;19.10;55.02;95805.38;10454459;28;20025;-22
2021/12/02 19:34:54;;;;;;;6.50;5.03;;;;;;;19.12;55.36;95817.16;10453456;28;20036;-22
2021/12/02 19:39:54;;;;;;;8.07;5.40;;;;;;;19.11;55.20;95822.25;10451833;28;20447;-22
2021/12/02 19:44:57;;;;;;;8.63;5.60;;;;;;;19.14;55.05;95823.06;10449983;28;20341;-22
2021/12/02 19:49:58;;;;;;;8.20;4.65;;;;;;;19.09;55.30;95829.06;10454802;28;20508;-22
2021/12/02 19:54:58;;;;;;;5.88;5.00;;;;;;;19.09;55.21;95846.81;10462454;28;20032;-22
2021/12/02 19:59:59;;;;;;;5.78;4.75;;;;;;;19.12;54.68;95837.47;10454811;28;20025;-22
2021/12/02 20:04:59;;;;;;;7.88;5.20;;;;;;;19.13;54.96;95853.50;10451255;28;20048;-22
2021/12/02 20:10:00;;;;;;;6.50;4.83;;;;;;;19.10;54.80;95843.41;10451241;28;20489;-22
2021/12/02 20:15:00;;;;;;;7.88;5.05;;;;;;;19.09;54.84;95864.59;10457615;28;20588;-22
2021/12/02 20:20:04;;;;;;;6.05;4.43;;;;;;;19.10;55.07;95869.63;10457491;28;20202;-22
2021/12/02 20:25:06;;;;;;;7.15;4.70;;;;;;;19.10;54.93;95878.94;10443420;28;20063;-22
2021/12/02 20:30:10;;;;;;;8.05;5.30;;;;;;;19.13;54.67;95881.41;10461657;28;20024;-22
2021/12/02 20:35:11;;;;;;;6.22;4.75;;;;;;;19.11;54.96;95884.00;10461636;28;20064;-22
2021/12/02 20:40:12;;;;;;;6.65;4.60;;;;;;;19.13;54.99;95894.97;10451872;28;20032;-22
2021/12/02 20:45:13;;;;;;;6.57;4.93;;;;;;;19.13;55.08;95927.09;10444676;28;20028;-22
2021/12/02 20:50:14;;;;;;;5.35;4.40;;;;;;;19.16;54.81;95922.81;10463144;28;20028;-22
2021/12/02 20:55:14;;;;;;;5.28;4.43;;;;;;;19.19;54.67;95922.78;10459809;28;20044;-23
2021/12/02 21:00:21;;;;;;;6.72;4.30;;;;;;;19.13;55.10;95932.16;10459203;28;20037;-21
2021/12/02 21:05:21;;;;;;;;;;;;;;;19.14;55.05;95944.84;10453344;28;20045;-22
2021/12/02 21:10:24;;;;;;;9.55;5.60;;;;;;;19.12;55.49;95940.63;10469164;28;20277;-22
2021/12/02 21:15:26;;;;;;;10.27;5.65;;;;;;;19.08;56.02;95954.25;10462564;28;20037;-22
2021/12/02 21:20:28;;;;;;;8.38;5.30;;;;;;;19.07;56.18;95953.38;10462163;28;20546;-22
2021/12/02 21:25:29;;;;;;;8.63;4.35;;;;;;;19.10;56.50;95966.03;10457733;28;20029;-21
2021/12/02 21:30:30;;;;;;;9.73;5.20;;;;;;;19.18;56.45;95965.94;10474041;28;20031;-22
2021/12/02 21:35:31;;;;;;;13.05;5.85;;;;;;;19.20;56.22;95966.78;10469753;28;20025;-21
2021/12/02 21:40:31;;;;;;;11.98;5.03;;;;;;;19.22;56.20;95967.56;10462262;28;20052;-22
2021/12/02 21:45:36;;;;;;;6.65;5.07;;;;;;;19.21;56.31;95973.53;10469348;28;20032;-21
2021/12/02 21:50:38;;;;;;;10.43;4.68;;;;;;;19.18;56.01;95971.00;10466357;28;20029;-22
2021/12/02 21:55:38;;;;;;;9.35;4.70;;;;;;;19.17;56.27;95971.88;10466281;28;20082;-22
2021/12/02 22:06:02;;;;;;;11.40;5.13;;;;;;;19.14;56.05;95966.81;10465534;28;20040;-22
2021/12/02 22:11:03;;;;;;;11.60;4.97;;;;;;;19.08;55.98;95972.81;10458285;28;20060;-22
2021/12/02 22:16:04;;;;;;;11.05;4.78;;;;;;;19.11;55.84;95993.09;10468400;28;20605;-22
2021/12/02 22:21:04;;;;;;;9.88;4.18;;;;;;;19.12;55.68;96006.59;10468853;28;20044;-22
2021/12/02 22:26:05;;;;;;;9.53;4.33;;;;;;;19.12;55.43;96009.13;10469574;28;20040;-22
2021/12/02 22:31:05;;;;;;;8.83;4.50;;;;;;;19.08;55.55;96010.06;10476393;28;20662;-22
2021/12/02 22:36:06;;;;;;;6.68;4.40;;;;;;;19.13;55.48;96021.81;10463763;28;20295;-22
2021/12/02 22:41:06;;;;;;;5.88;4.15;;;;;;;19.04;55.30;96016.88;10462535;28;20250;-21
2021/12/02 22:46:07;;;;;;;5.70;4.03;;;;;;;19.11;55.35;96021.00;10473511;28;20064;-21
2021/12/02 22:51:07;;;;;;;10.32;4.78;;;;;;;19.11;55.55;96030.31;10463991;28;20052;-22
2021/12/02 22:56:08;;;;;;;7.95;4.93;;;;;;;19.12;55.37;96031.97;10465445;28;20119;-22
2021/12/02 23:01:17;;;;;;;7.53;4.13;;;;;;;19.11;55.31;96027.75;10459759;28;20040;-22
2021/12/02 23:06:19;;;;;;;6.72;3.47;;;;;;;19.08;55.34;96032.88;10461372;28;20036;-22
2021/12/02 23:11:20;;;;;;;6.13;3.83;;;;;;;19.10;55.28;96048.94;10460851;28;20037;-21
2021/12/02 23:16:21;;;;;;;7.75;4.60;;;;;;;19.13;55.08;96044.66;10461787;28;20033;-22
2021/12/02 23:21:22;;;;;;;6.13;3.58;;;;;;;19.14;54.98;96050.56;10462959;28;20037;-22
2021/12/02 23:26:22;;;;;;;5.55;3.30;;;;;;;19.09;54.84;96047.25;10464024;28;20040;-22
2021/12/02 23:31:25;;;;;;;4.93;3.13;;;;;;;19.11;55.14;96051.44;10472049;28;20029;-22
2021/12/02 23:36:30;;;;;;;8.13;4.40;;;;;;;19.09;55.25;96047.25;10468876;28;20123;-23
2021/12/02 23:41:30;;;;;;;7.35;3.30;;;;;;;19.09;55.09;96052.31;10468450;28;20107;-22
2021/12/02 23:46:31;;;;;;;5.75;3.58;;;;;;;19.12;54.83;96065.81;10468066;28;20078;-21
2021/12/02 23:51:32;;;;;;;6.85;3.58;;;;;;;19.09;55.30;96059.94;10468180;28;20111;-22
2021/12/02 23:56:32;;;;;;;6.35;3.45;;;;;;;19.10;54.99;96062.44;10471056;28;20399;-21
